Time;durP1;ratioP1;P1;durP2;ratioP2;P2;SDS_P1;SDS_P2;PMS_P1;PMS_P2;Temp;Humidity;BMP_temperature;BMP_pressure;BME280_temperature;BME280_humidity;BME280_pressure;Samples;Min_cycle;Max_cycle;Signal;HPM_P1;HPM_P2
2022/07/11 00:00:12;;;;;;;3.20;1.85;;;;;;;15.32;100.00;102425.91;5026247;28;20032;-75
2022/07/11 00:02:41;;;;;;;1.70;1.30;;;;;;;15.33;100.00;102437.47;5025700;28;20102;-76
2022/07/11 00:05:08;;;;;;;3.00;1.33;;;;;;;15.27;100.00;102429.72;5024940;28;20033;-77
2022/07/11 00:07:34;;;;;;;3.25;1.40;;;;;;;15.24;100.00;102436.03;5026054;28;20035;-78
2022/07/11 00:10:01;;;;;;;3.15;1.83;;;;;;;15.21;100.00;102430.84;5025786;28;20105;-76
2022/07/11 00:12:27;;;;;;;1.35;1.25;;;;;;;15.18;100.00;102434.50;5026491;28;20353;-75
2022/07/11 00:14:56;;;;;;;2.60;1.33;;;;;;;15.16;100.00;102433.66;5024499;28;20025;-75
2022/07/11 00:17:22;;;;;;;1.55;1.33;;;;;;;15.16;100.00;102431.00;5020483;28;20080;-76
2022/07/11 00:19:48;;;;;;;1.70;1.48;;;;;;;15.12;100.00;102431.19;5035873;28;20642;-75
2022/07/11 00:22:14;;;;;;;2.45;1.50;;;;;;;15.09;100.00;102436.66;5026161;28;20041;-76
2022/07/11 00:24:39;;;;;;;2.20;1.70;;;;;;;15.02;100.00;102423.56;5026850;28;20029;-75
2022/07/11 00:27:05;;;;;;;2.10;1.63;;;;;;;14.96;100.00;102421.13;5025740;28;20029;-75
2022/07/11 00:29:34;;;;;;;2.28;1.48;;;;;;;14.91;100.00;102421.31;5026321;28;20032;-75
2022/07/11 00:31:59;;;;;;;1.50;1.25;;;;;;;14.87;100.00;102414.34;5026439;28;20436;-76
2022/07/11 00:34:25;;;;;;;2.33;1.20;;;;;;;14.84;100.00;102417.16;5025488;28;20117;-74
2022/07/11 00:36:51;;;;;;;2.92;1.70;;;;;;;14.83;100.00;102417.19;5025938;28;20552;-76
2022/07/11 00:39:17;;;;;;;1.48;1.20;;;;;;;14.81;100.00;102409.25;5026366;28;20041;-75
2022/07/11 00:41:42;;;;;;;1.73;1.40;;;;;;;14.81;100.00;102411.91;5025628;28;20044;-75
2022/07/11 00:44:08;;;;;;;3.70;1.30;;;;;;;14.82;100.00;102402.13;5025766;28;20029;-76
2022/07/11 00:46:36;;;;;;;5.40;1.52;;;;;;;14.82;100.00;102410.13;5024509;28;20033;-76
2022/07/11 00:49:02;;;;;;;3.97;1.85;;;;;;;14.79;100.00;102404.00;5023615;28;20415;-75
2022/07/11 00:51:28;;;;;;;3.78;1.65;;;;;;;14.79;100.00;102403.13;5025665;28;20049;-75
2022/07/11 00:53:56;;;;;;;2.45;1.70;;;;;;;14.79;100.00;102403.13;5023981;28;20099;-76
2022/07/11 00:56:25;;;;;;;2.20;1.77;;;;;;;14.79;100.00;102403.13;5019508;28;20086;-75
2022/07/11 00:58:52;;;;;;;3.80;1.60;;;;;;;14.76;100.00;102398.78;5023601;28;20033;-75
2022/07/11 01:01:18;;;;;;;2.15;1.60;;;;;;;14.75;100.00;102397.03;5025338;28;20044;-75
2022/07/11 01:03:44;;;;;;;5.28;2.00;;;;;;;14.76;100.00;102389.94;5025368;28;20038;-76
2022/07/11 01:06:10;;;;;;;5.32;2.08;;;;;;;14.77;100.00;102389.00;5025467;28;20036;-75
2022/07/11 01:08:39;;;;;;;4.60;1.90;;;;;;;14.76;100.00;102379.25;5025324;28;20112;-75
2022/07/11 01:11:08;;;;;;;2.92;1.80;;;;;;;14.74;100.00;102379.31;5024761;28;20457;-75
2022/07/11 01:13:34;;;;;;;4.30;1.90;;;;;;;14.73;100.00;102380.22;5019878;28;20673;-75
2022/07/11 01:16:13;;;;;;;5.05;2.10;;;;;;;14.74;100.00;102378.44;5025599;28;20079;-75
2022/07/11 01:18:52;;;;;;;4.32;1.95;;;;;;;14.75;100.00;102386.38;5024835;28;20040;-76
2022/07/11 01:21:21;;;;;;;3.78;1.80;;;;;;;14.76;100.00;102387.25;5025258;28;20032;-76
2022/07/11 01:23:52;;;;;;;1.80;1.58;;;;;;;14.77;100.00;102389.00;5026257;28;20143;-75
2022/07/11 01:26:19;;;;;;;2.78;1.90;;;;;;;14.76;100.00;102393.44;5025092;28;20799;-76
2022/07/11 01:28:45;;;;;;;2.83;2.00;;;;;;;14.75;100.00;102397.03;5025579;28;20048;-75
2022/07/11 01:31:12;;;;;;;2.33;1.60;;;;;;;14.75;100.00;102394.38;5024242;28;20064;-76
2022/07/11 01:33:38;;;;;;;3.75;1.95;;;;;;;14.76;100.00;102385.44;5025753;28;20107;-77
2022/07/11 01:36:03;;;;;;;5.35;2.00;;;;;;;14.75;100.00;102389.03;5024122;28;20087;-77
2022/07/11 01:38:29;;;;;;;4.30;2.20;;;;;;;14.77;100.00;102394.31;5026196;28;20045;-76
2022/07/11 01:40:54;;;;;;;2.60;1.70;;;;;;;14.77;100.00;102389.84;5023332;28;20032;-76
2022/07/11 01:43:20;;;;;;;4.22;1.98;;;;;;;14.79;100.00;102397.78;5025264;28;20028;-76
2022/07/11 01:45:46;;;;;;;2.47;1.98;;;;;;;14.79;100.00;102396.00;5001895;28;20435;-76
2022/07/11 01:48:11;;;;;;;7.43;2.13;;;;;;;14.81;100.00;102398.59;5019014;28;20033;-76
2022/07/11 01:50:37;;;;;;;5.35;2.15;;;;;;;14.82;100.00;102402.13;5024800;28;20381;-76
2022/07/11 01:53:02;;;;;;;4.50;2.50;;;;;;;14.81;100.00;102393.25;5024212;28;20092;-76
2022/07/11 01:55:28;;;;;;;4.82;2.35;;;;;;;14.82;100.00;102396.81;5006974;28;20030;-76
2022/07/11 01:57:54;;;;;;;3.28;2.22;;;;;;;14.82;100.00;102396.81;5025000;28;20124;-76
2022/07/11 02:00:19;;;;;;;3.58;1.98;;;;;;;14.83;100.00;102393.22;4990334;28;20041;-76
2022/07/11 02:02:45;;;;;;;2.35;1.90;;;;;;;14.83;100.00;102394.09;5024368;28;20424;-76
2022/07/11 02:05:10;;;;;;;1.90;1.73;;;;;;;14.80;100.00;102395.06;5025569;28;20060;-77
2022/07/11 02:10:20;;;;;;;2.17;1.40;;;;;;;14.75;100.00;102391.72;5022877;28;20045;-75
2022/07/11 02:12:45;;;;;;;3.53;2.08;;;;;;;14.72;100.00;102386.47;5029043;28;20414;-76
2022/07/11 02:15:11;;;;;;;2.75;1.60;;;;;;;14.71;100.00;102390.03;5027899;28;20024;-76
2022/07/11 02:17:36;;;;;;;2.60;1.60;;;;;;;14.72;100.00;102389.16;5028119;28;20056;-75
2022/07/11 02:20:02;;;;;;;2.45;1.75;;;;;;;14.72;100.00;102383.81;5028795;28;20036;-76
2022/07/11 02:22:29;;;;;;;2.45;1.70;;;;;;;14.72;100.00;102390.94;5027201;28;20033;-76
2022/07/11 02:24:55;;;;;;;5.50;2.03;;;;;;;14.70;100.00;102387.47;5027344;28;20038;-76
2022/07/11 02:27:21;;;;;;;2.63;1.80;;;;;;;14.70;100.00;102392.78;5028203;28;20507;-76
2022/07/11 02:29:46;;;;;;;1.75;1.42;;;;;;;14.68;100.00;102387.50;5027709;28;20045;-76
2022/07/11 02:32:12;;;;;;;3.80;1.63;;;;;;;14.67;100.00;102391.09;5028081;28;20388;-76
2022/07/11 02:34:37;;;;;;;2.95;1.45;;;;;;;14.67;100.00;102383.13;5010453;28;20025;-75
2022/07/11 02:37:05;;;;;;;1.58;1.20;;;;;;;14.68;100.00;102382.19;5009911;28;20107;-76
2022/07/11 02:39:31;;;;;;;3.63;1.67;;;;;;;14.68;100.00;102379.50;5026708;28;20064;-76
2022/07/11 02:41:57;;;;;;;1.55;1.40;;;;;;;14.65;100.00;102376.94;5026375;28;20503;-76
2022/07/11 02:44:22;;;;;;;2.42;1.50;;;;;;;14.66;100.00;102370.72;5026538;28;20044;-76
2022/07/11 02:46:48;;;;;;;2.25;1.60;;;;;;;14.66;100.00;102373.38;5028355;28;20036;-76
2022/07/11 02:49:13;;;;;;;2.70;1.63;;;;;;;14.65;100.00;102379.63;5027610;28;20144;-76
2022/07/11 02:51:39;;;;;;;2.95;1.40;;;;;;;14.65;100.00;102374.28;5026417;28;20086;-76
2022/07/11 02:54:04;;;;;;;3.70;1.50;;;;;;;14.64;100.00;102378.75;5028044;28;20020;-76
2022/07/11 02:56:29;;;;;;;2.63;1.58;;;;;;;14.64;100.00;102376.09;5026204;28;20033;-76
2022/07/11 02:58:55;;;;;;;2.80;1.50;;;;;;;14.64;100.00;102383.22;5026390;28;20111;-76
2022/07/11 03:01:20;;;;;;;1.83;1.48;;;;;;;14.64;100.00;102383.22;5027993;28;20041;-76
2022/07/11 03:03:46;;;;;;;2.38;1.52;;;;;;;14.61;100.00;102378.88;5026435;28;20037;-76
2022/07/11 03:06:11;;;;;;;1.75;1.33;;;;;;;14.62;100.00;102382.41;5009165;28;20033;-76
2022/07/11 03:08:37;;;;;;;2.78;1.30;;;;;;;14.61;100.00;102384.19;5026582;28;20071;-76
2022/07/11 03:11:02;;;;;;;1.48;1.30;;;;;;;14.59;100.00;102386.06;5025877;28;20022;-76
2022/07/11 03:13:28;;;;;;;2.13;1.50;;;;;;;14.59;100.00;102383.41;5038155;28;20106;-76
2022/07/11 03:15:54;;;;;;;1.52;1.02;;;;;;;14.61;100.00;102383.34;5009527;28;20060;-76
2022/07/11 03:18:19;;;;;;;1.65;1.33;;;;;;;14.61;100.00;102386.00;5026317;28;20202;-76
2022/07/11 03:20:46;;;;;;;2.42;1.27;;;;;;;14.60;100.00;102382.47;5026872;28;20119;-76
2022/07/11 03:23:11;;;;;;;2.15;0.98;;;;;;;14.60;100.00;102382.47;5027270;28;20029;-76
2022/07/11 03:25:37;;;;;;;2.10;0.80;;;;;;;14.59;100.00;102387.88;5026895;28;20038;-76
2022/07/11 03:28:02;;;;;;;1.80;1.10;;;;;;;14.59;100.00;102395.88;5026436;28;20041;-76
2022/07/11 03:30:28;;;;;;;1.20;0.95;;;;;;;14.57;100.00;102387.94;5025847;28;21565;-76
2022/07/11 03:32:53;;;;;;;1.25;0.95;;;;;;;14.58;100.00;102394.09;5025444;28;20046;-76
2022/07/11 03:38:06;;;;;;;1.50;0.85;;;;;;;14.57;100.00;102400.38;5027319;28;20076;-76
2022/07/11 03:40:31;;;;;;;1.55;0.80;;;;;;;14.54;100.00;102401.34;5027045;28;20037;-76
2022/07/11 03:42:57;;;;;;;0.75;0.60;;;;;;;14.55;100.00;102396.91;5027001;28;20091;-76
2022/07/11 03:45:22;;;;;;;0.70;0.70;;;;;;;14.56;100.00;102395.97;5027422;28;20021;-76
2022/07/11 03:47:48;;;;;;;1.23;0.75;;;;;;;14.56;100.00;102395.97;5026296;28;20537;-76
2022/07/11 03:50:14;;;;;;;1.65;1.00;;;;;;;14.57;100.00;102395.91;5026772;28;20040;-76
2022/07/11 03:52:40;;;;;;;1.25;1.00;;;;;;;14.58;100.00;102387.00;5027048;28;20028;-77
2022/07/11 03:55:05;;;;;;;0.98;0.90;;;;;;;14.60;100.00;102398.47;5026417;28;20029;-76
2022/07/11 03:57:34;;;;;;;1.40;1.00;;;;;;;14.60;100.00;102398.47;5026450;28;20399;-76
2022/07/11 04:00:09;;;;;;;1.27;1.00;;;;;;;14.62;100.00;102395.75;5026840;28;20049;-76
2022/07/11 04:02:35;;;;;;;0.68;0.68;;;;;;;14.62;100.00;102395.75;5024463;28;20033;-76
2022/07/11 04:05:01;;;;;;;1.65;0.88;;;;;;;14.63;100.00;102402.81;5024751;28;20045;-76
2022/07/11 04:07:28;;;;;;;1.10;0.90;;;;;;;14.65;100.00;102400.94;5003881;28;20115;-76
2022/07/11 04:09:57;;;;;;;0.90;0.77;;;;;;;14.66;100.00;102395.56;5024781;28;20048;-76
2022/07/11 04:12:22;;;;;;;1.63;1.08;;;;;;;14.68;100.00;102400.84;5025839;28;20028;-76
2022/07/11 04:14:48;;;;;;;1.65;1.08;;;;;;;14.70;100.00;102404.31;5003793;28;20048;-76
2022/07/11 04:17:13;;;;;;;1.50;1.10;;;;;;;14.69;100.00;102396.34;5025855;28;20508;-76
2022/07/11 04:19:39;;;;;;;1.50;1.10;;;;;;;14.67;100.00;102401.78;5019458;28;20188;-76
2022/07/11 04:22:05;;;;;;;3.20;1.00;;;;;;;14.66;100.00;102402.72;5026719;28;20159;-76
2022/07/11 04:24:31;;;;;;;0.80;0.80;;;;;;;14.64;100.00;102394.75;5003350;28;20025;-76
2022/07/11 04:26:57;;;;;;;4.75;1.95;;;;;;;14.64;100.00;102394.75;5026011;28;20044;-76
2022/07/11 04:29:23;;;;;;;2.67;1.63;;;;;;;14.67;100.00;102393.78;5025670;28;20033;-76
2022/07/11 04:31:50;;;;;;;4.32;1.58;;;;;;;14.68;100.00;102392.84;5025335;28;20038;-76
2022/07/11 04:34:16;;;;;;;1.67;1.10;;;;;;;14.69;100.00;102394.56;5020128;28;20661;-76
2022/07/11 04:36:43;;;;;;;1.33;1.02;;;;;;;14.69;100.00;102399.03;5021132;28;20051;-76
2022/07/11 04:39:08;;;;;;;1.35;1.13;;;;;;;14.69;100.00;102391.03;5024035;28;20041;-76
2022/07/11 04:41:34;;;;;;;1.63;0.98;;;;;;;14.69;100.00;102399.91;5025314;28;20036;-76
2022/07/11 04:44:00;;;;;;;1.85;0.82;;;;;;;14.69;100.00;102405.25;5026481;28;20040;-76
2022/07/11 04:46:25;;;;;;;1.35;0.93;;;;;;;14.70;100.00;102406.97;5026149;28;20033;-76
2022/07/11 04:48:51;;;;;;;1.33;0.80;;;;;;;14.69;100.00;102407.91;5025517;28;20094;-76
2022/07/11 04:51:17;;;;;;;1.00;0.77;;;;;;;14.70;100.00;102409.63;5037071;28;20041;-76
2022/07/11 04:53:42;;;;;;;1.10;0.90;;;;;;;14.72;100.00;102409.59;5025883;28;20530;-76
2022/07/11 04:56:08;;;;;;;3.42;0.95;;;;;;;14.73;100.00;102414.88;5024828;28;20599;-75
2022/07/11 04:58:34;;;;;;;2.45;0.90;;;;;;;14.74;100.00;102411.31;5024545;28;20116;-76
2022/07/11 05:01:00;;;;;;;1.10;0.77;;;;;;;14.76;100.00;102422.75;5025820;28;20029;-75
2022/07/11 05:03:26;;;;;;;1.83;0.90;;;;;;;14.75;100.00;102413.03;5026062;28;20429;-76
2022/07/11 05:05:51;;;;;;;0.70;0.63;;;;;;;14.76;100.00;102419.25;5025565;28;20052;-75
2022/07/11 05:08:17;;;;;;;0.80;0.80;;;;;;;14.72;100.00;102421.13;5025487;28;20384;-75
2022/07/11 05:10:43;;;;;;;1.33;0.80;;;;;;;14.70;100.00;102420.31;5025481;28;20579;-76
2022/07/11 05:13:08;;;;;;;0.80;0.70;;;;;;;14.67;100.00;102420.44;5025956;28;21086;-76
2022/07/11 05:15:42;;;;;;;1.73;0.68;;;;;;;14.70;100.00;102424.78;5026073;28;20065;-77
2022/07/11 05:18:07;;;;;;;1.50;0.80;;;;;;;14.70;100.00;102424.78;5002600;28;20116;-75
2022/07/11 05:20:35;;;;;;;0.73;0.70;;;;;;;14.74;100.00;102423.75;5036049;28;20676;-75
2022/07/11 05:23:01;;;;;;;2.05;0.80;;;;;;;14.79;100.00;102428.00;5002992;28;20380;-75
2022/07/11 05:25:26;;;;;;;2.85;0.70;;;;;;;14.83;100.00;102423.41;5025897;28;20056;-75
2022/07/11 05:27:52;;;;;;;1.55;0.60;;;;;;;14.88;100.00;102426.75;5025084;28;20119;-75
2022/07/11 05:30:18;;;;;;;1.80;0.75;;;;;;;14.96;100.00;102425.59;5026132;28;20033;-76
2022/07/11 05:32:43;;;;;;;1.48;0.88;;;;;;;15.03;100.00;102427.13;5025228;28;20075;-76
2022/07/11 05:35:09;;;;;;;0.80;0.60;;;;;;;15.04;100.00;102428.84;5025458;28;20228;-76
2022/07/11 05:37:34;;;;;;;0.80;0.73;;;;;;;15.04;100.00;102434.19;5025224;28;20037;-76
2022/07/11 05:40:03;;;;;;;2.35;0.88;;;;;;;15.06;100.00;102427.84;5024900;28;20049;-76
2022/07/11 05:42:32;;;;;;;0.95;0.75;;;;;;;15.11;100.00;102429.47;5029510;28;20025;-77
2022/07/11 05:44:57;;;;;;;1.38;0.80;;;;;;;15.13;100.00;102439.13;5028795;28;20048;-75
2022/07/11 05:47:22;;;;;;;0.70;0.65;;;;;;;15.15;100.00;102441.75;5028225;28;20048;-75
2022/07/11 05:49:48;;;;;;;0.50;0.50;;;;;;;15.12;100.00;102442.75;5029837;28;20032;-76
2022/07/11 05:52:17;;;;;;;0.55;0.50;;;;;;;15.06;100.00;102430.53;5028485;28;20037;-77
2022/07/11 05:54:42;;;;;;;0.50;0.50;;;;;;;15.06;100.00;102433.19;5028812;28;20044;-75
2022/07/11 05:57:08;;;;;;;1.60;0.60;;;;;;;15.13;100.00;102433.81;5028293;28;20029;-75
2022/07/11 05:59:37;;;;;;;0.57;0.57;;;;;;;15.19;100.00;102440.69;5029435;28;20132;-75
2022/07/11 06:02:03;;;;;;;1.77;0.60;;;;;;;15.20;100.00;102445.13;5022133;28;20037;-75
2022/07/11 06:04:28;;;;;;;1.02;0.60;;;;;;;15.22;100.00;102435.25;5028277;28;20072;-76
2022/07/11 06:06:53;;;;;;;0.60;0.60;;;;;;;15.28;100.00;102437.66;5028482;28;20033;-75
2022/07/11 06:09:19;;;;;;;1.35;0.75;;;;;;;15.35;100.00;102435.59;5028471;28;20045;-75
2022/07/11 06:11:45;;;;;;;0.70;0.70;;;;;;;15.39;100.00;102434.56;5009993;28;20124;-75
2022/07/11 06:14:10;;;;;;;0.68;0.60;;;;;;;15.40;100.00;102424.75;5028924;28;20108;-76
2022/07/11 06:16:36;;;;;;;0.90;0.80;;;;;;;15.38;100.00;102432.84;5027653;28;20065;-75
2022/07/11 06:19:02;;;;;;;0.60;0.60;;;;;;;15.37;100.00;102425.75;5027843;28;20040;-75
2022/07/11 06:21:27;;;;;;;0.70;0.40;;;;;;;15.43;100.00;102430.81;5027012;28;20184;-76
2022/07/11 06:23:54;;;;;;;0.40;0.40;;;;;;;15.49;100.00;102421.72;5028495;28;20481;-76
2022/07/11 06:26:20;;;;;;;0.95;0.50;;;;;;;15.51;100.00;102422.50;5028522;28;20033;-75
2022/07/11 06:28:46;;;;;;;0.40;0.40;;;;;;;15.60;100.00;102422.13;5028229;28;20111;-75
2022/07/11 06:31:12;;;;;;;0.40;0.40;;;;;;;15.67;100.00;102421.84;5027700;28;20029;-75
2022/07/11 06:33:41;;;;;;;0.30;0.30;;;;;;;15.69;100.00;102430.69;5026959;28;21006;-78
2022/07/11 06:36:06;;;;;;;0.30;0.30;;;;;;;15.62;100.00;102424.72;5026852;28;21580;-76
2022/07/11 06:38:32;;;;;;;0.55;0.38;;;;;;;15.61;100.00;102428.34;5010021;28;20159;-77
2022/07/11 06:40:58;;;;;;;0.88;0.57;;;;;;;15.58;100.00;102434.66;5026594;28;20547;-76
2022/07/11 06:43:24;;;;;;;0.73;0.60;;;;;;;15.56;100.00;102439.22;5029045;28;20664;-76
2022/07/11 06:45:50;;;;;;;0.47;0.40;;;;;;;15.61;100.00;102434.56;5009730;28;20415;-76
2022/07/11 06:48:16;;;;;;;0.40;0.40;;;;;;;15.67;100.00;102432.53;5027796;28;20475;-76
2022/07/11 06:50:44;;;;;;;0.90;0.52;;;;;;;15.76;100.00;102437.50;5027440;28;20034;-76
2022/07/11 06:53:09;;;;;;;0.70;0.50;;;;;;;15.84;100.00;102431.81;5026576;28;20491;-76
2022/07/11 06:55:35;;;;;;;0.43;0.43;;;;;;;15.94;100.00;102433.22;5027160;28;20034;-75
2022/07/11 06:58:08;;;;;;;1.55;0.50;;;;;;;15.99;100.00;102439.22;5038230;28;20040;-76
2022/07/11 07:00:34;;;;;;;0.50;0.50;;;;;;;16.11;100.00;102440.50;5026102;28;20053;-76
2022/07/11 07:03:04;;;;;;;0.30;0.30;;;;;;;16.10;100.00;102452.13;5022344;28;20055;-76
2022/07/11 07:05:30;;;;;;;0.35;0.35;;;;;;;16.15;100.00;102457.25;5004318;28;20088;-76
2022/07/11 07:07:55;;;;;;;0.30;0.30;;;;;;;16.18;100.00;102454.44;5010012;28;20175;-76
2022/07/11 07:10:21;;;;;;;0.85;0.30;;;;;;;16.35;100.00;102451.03;5027366;28;20040;-76
2022/07/11 07:12:46;;;;;;;0.20;0.20;;;;;;;16.46;100.00;102447.00;5027572;28;20029;-76
2022/07/11 07:15:12;;;;;;;1.20;0.30;;;;;;;16.48;100.00;102442.47;5009515;28;20043;-75
2022/07/11 07:17:38;;;;;;;0.30;0.30;;;;;;;16.48;100.00;102442.47;5020692;28;20056;-76
2022/07/11 07:20:11;;;;;;;0.20;0.20;;;;;;;16.50;100.00;102445.97;5009630;28;20033;-77
2022/07/11 07:22:37;;;;;;;0.20;0.20;;;;;;;16.58;100.00;102441.13;5004506;28;20141;-76
2022/07/11 07:25:04;;;;;;;0.30;0.30;;;;;;;16.81;100.00;102444.53;5027050;28;20041;-76
2022/07/11 07:27:30;;;;;;;0.30;0.30;;;;;;;17.04;100.00;102445.28;5026956;28;20087;-76
2022/07/11 07:29:55;;;;;;;0.20;0.20;;;;;;;17.27;100.00;102443.31;5025717;28;20610;-76
2022/07/11 07:32:20;;;;;;;0.20;0.20;;;;;;;17.34;100.00;102448.28;5026795;28;20044;-76
2022/07/11 07:34:46;;;;;;;0.30;0.30;;;;;;;17.37;100.00;102456.19;5026991;28;20089;-77
2022/07/11 07:37:12;;;;;;;0.20;0.20;;;;;;;17.29;100.00;102453.00;5025163;28;20029;-76
2022/07/11 07:39:38;;;;;;;0.30;0.30;;;;;;;17.27;100.00;102454.03;5025564;28;20037;-76
2022/07/11 07:42:06;;;;;;;0.30;0.30;;;;;;;17.26;100.00;102453.16;5025653;28;20156;-76
2022/07/11 07:44:31;;;;;;;0.30;0.30;;;;;;;17.30;100.00;102454.75;5024893;28;20044;-76
2022/07/11 07:46:57;;;;;;;0.40;0.30;;;;;;;17.32;100.00;102454.69;5027320;28;20026;-78
2022/07/11 07:49:23;;;;;;;0.30;0.30;;;;;;;17.36;100.00;102448.22;5025165;28;20475;-76
2022/07/11 07:51:48;;;;;;;0.30;0.30;;;;;;;17.47;100.00;102455.72;5025108;28;20061;-76
2022/07/11 07:54:14;;;;;;;0.30;0.30;;;;;;;17.48;100.00;102447.63;5025302;28;20546;-76
2022/07/11 07:56:39;;;;;;;0.20;0.20;;;;;;;17.46;100.00;102451.31;5020745;28;20053;-76
2022/07/11 07:59:07;;;;;;;0.30;0.30;;;;;;;17.44;100.00;102453.19;5027137;28;20040;-76
2022/07/11 08:01:36;;;;;;;0.30;0.30;;;;;;;17.40;100.00;102446.25;5025653;28;20135;-76
2022/07/11 08:04:05;;;;;;;0.45;0.30;;;;;;;17.40;100.00;102448.94;5025809;28;20688;-77
2022/07/11 08:06:32;;;;;;;0.20;0.20;;;;;;;17.43;100.00;102459.50;5026951;28;20045;-76
2022/07/11 08:08:57;;;;;;;0.80;0.30;;;;;;;17.50;100.00;102459.09;5025141;28;20037;-75
2022/07/11 08:11:23;;;;;;;0.20;0.20;;;;;;;17.54;100.00;102462.50;5024717;28;20039;-75
2022/07/11 08:13:49;;;;;;;0.20;0.20;;;;;;;17.49;100.00;102460.06;5026414;28;20033;-75
2022/07/11 08:16:15;;;;;;;0.20;0.20;;;;;;;17.47;100.00;102461.06;5036071;28;20354;-78
2022/07/11 08:18:40;;;;;;;0.20;0.20;;;;;;;17.44;100.00;102462.06;5026325;28;20045;-75
2022/07/11 08:21:06;;;;;;;0.20;0.20;;;;;;;17.40;100.00;102465.88;5020376;28;20107;-76
2022/07/11 08:23:31;;;;;;;0.20;0.20;;;;;;;17.38;100.00;102475.78;5024478;28;20037;-72
2022/07/11 08:25:57;;;;;;;1.15;0.50;;;;;;;17.39;100.00;102466.81;5025508;28;20029;-72
2022/07/11 08:28:23;;;;;;;0.30;0.30;;;;;;;17.38;100.00;102468.63;5026549;28;20048;-76
2022/07/11 08:30:48;;;;;;;0.45;0.32;;;;;;;17.40;100.00;102465.88;5020150;28;20044;-75
2022/07/11 08:33:14;;;;;;;1.30;0.30;;;;;;;17.38;100.00;102468.63;5025029;28;20562;-76
2022/07/11 08:35:39;;;;;;;0.30;0.30;;;;;;;17.35;100.00;102462.53;5023493;28;20628;-74
2022/07/11 08:38:05;;;;;;;0.30;0.20;;;;;;;17.39;100.00;102464.13;5024341;28;20066;-75
2022/07/11 08:40:30;;;;;;;0.30;0.25;;;;;;;17.53;100.00;102465.28;5025171;28;20494;-76
2022/07/11 08:42:57;;;;;;;0.40;0.40;;;;;;;17.61;100.00;102458.56;5024396;28;20119;-77
2022/07/11 08:45:30;;;;;;;0.30;0.30;;;;;;;17.62;100.00;102462.13;5025788;28;20633;-76
2022/07/11 08:47:58;;;;;;;0.30;0.30;;;;;;;17.56;100.00;102467.78;5026276;28;20431;-76
2022/07/11 08:50:25;;;;;;;0.30;0.28;;;;;;;17.56;100.00;102463.31;5024561;28;20040;-76
2022/07/11 08:52:52;;;;;;;0.25;0.25;;;;;;;17.58;100.00;102457.84;5025357;28;20087;-76
2022/07/11 08:55:20;;;;;;;0.30;0.30;;;;;;;17.58;100.00;102460.53;5021497;28;20036;-74
2022/07/11 08:57:46;;;;;;;1.10;0.40;;;;;;;17.58;100.00;102461.41;5021721;28;20037;-75
2022/07/11 09:00:12;;;;;;;0.40;0.40;;;;;;;17.59;100.00;102460.47;5023860;28;20045;-75
2022/07/11 09:02:41;;;;;;;2.72;0.73;;;;;;;17.59;100.00;102463.13;5020877;28;20330;-75
2022/07/11 09:05:07;;;;;;;0.20;0.20;;;;;;;17.65;100.00;102457.47;5024976;28;20498;-76
2022/07/11 09:07:34;;;;;;;0.20;0.20;;;;;;;17.78;100.00;102452.34;5025801;28;20128;-75
2022/07/11 09:10:00;;;;;;;0.20;0.20;;;;;;;17.91;100.00;102449.06;5025416;28;20061;-75
2022/07/11 09:12:25;;;;;;;0.35;0.20;;;;;;;18.00;100.00;102451.28;5034858;28;20120;-76
2022/07/11 09:14:54;;;;;;;0.30;0.30;;;;;;;17.95;100.00;102445.28;5018471;28;20027;-75
2022/07/11 09:17:27;;;;;;;0.45;0.45;;;;;;;17.97;100.00;102448.75;5021916;28;20048;-75
2022/07/11 09:19:53;;;;;;;0.43;0.30;;;;;;;17.96;100.00;102447.03;5022560;28;20122;-74
2022/07/11 09:25:31;;;;;;;1.00;0.35;;;;;;;17.94;100.00;102451.59;5024637;28;20040;-76
2022/07/11 09:28:07;;;;;;;0.75;0.30;;;;;;;17.98;100.00;102458.50;5021223;28;20029;-75
2022/07/11 09:30:42;;;;;;;0.28;0.28;;;;;;;17.98;100.00;102450.47;5024065;28;20503;-75
2022/07/11 09:33:10;;;;;;;0.28;0.28;;;;;;;17.98;100.00;102455.84;5022953;28;20120;-74
2022/07/11 09:35:40;;;;;;;0.85;0.40;;;;;;;18.03;100.00;102450.25;5024498;28;20037;-74
2022/07/11 09:38:11;;;;;;;0.35;0.35;;;;;;;18.04;100.00;102452.00;5022819;28;21032;-74
2022/07/11 09:40:38;;;;;;;1.50;0.40;;;;;;;18.09;100.00;102454.47;5018896;28;20158;-74
2022/07/11 09:43:04;;;;;;;0.63;0.40;;;;;;;18.15;100.00;102463.03;5018787;28;20133;-74
2022/07/11 09:45:32;;;;;;;0.40;0.40;;;;;;;18.14;100.00;102455.09;5024239;28;20042;-74
2022/07/11 09:48:06;;;;;;;1.17;0.40;;;;;;;18.13;100.00;102456.00;5024687;28;20041;-74
2022/07/11 09:50:31;;;;;;;0.90;0.45;;;;;;;18.13;100.00;102458.69;5017804;28;20038;-74
2022/07/11 09:53:08;;;;;;;1.13;0.40;;;;;;;18.17;100.00;102454.91;5024155;28;20033;-73
2022/07/11 09:55:46;;;;;;;0.50;0.40;;;;;;;18.19;100.00;102455.69;5023554;28;20123;-73
2022/07/11 09:58:16;;;;;;;0.30;0.30;;;;;;;18.20;100.00;102454.78;5024185;28;20392;-74
2022/07/11 10:00:43;;;;;;;0.30;0.30;;;;;;;18.22;100.00;102450.19;5021435;28;20033;-74
2022/07/11 10:03:10;;;;;;;0.30;0.30;;;;;;;18.28;100.00;102449.88;5024428;28;20496;-74
2022/07/11 10:05:37;;;;;;;0.80;0.40;;;;;;;18.23;100.00;102451.03;5024295;28;20033;-75
2022/07/11 10:08:03;;;;;;;0.40;0.40;;;;;;;18.20;100.00;102452.09;5024186;28;20447;-74
2022/07/11 10:10:30;;;;;;;0.28;0.28;;;;;;;18.27;100.00;102450.81;5022636;28;20071;-74
2022/07/11 10:12:56;;;;;;;0.30;0.30;;;;;;;18.34;100.00;102450.50;5024173;28;20033;-74
2022/07/11 10:15:32;;;;;;;0.30;0.30;;;;;;;18.40;100.00;102445.66;5022471;28;21804;-74
2022/07/11 10:18:09;;;;;;;0.30;0.30;;;;;;;18.46;100.00;102448.00;5021926;28;20063;-74
2022/07/11 10:20:46;;;;;;;1.60;0.55;;;;;;;18.57;100.00;102452.78;5017996;28;20048;-74
2022/07/11 10:23:33;;;;;;;0.30;0.30;;;;;;;18.61;100.00;102450.81;5018246;28;20111;-75
2022/07/11 10:26:04;;;;;;;0.35;0.35;;;;;;;18.57;100.00;102454.59;5018795;28;20444;-73
2022/07/11 10:28:38;;;;;;;0.30;0.30;;;;;;;18.48;100.00;102447.06;5027261;28;20534;-73
2022/07/11 10:31:06;;;;;;;0.65;0.47;;;;;;;18.52;100.00;102448.66;5028006;28;20416;-74
2022/07/11 10:33:31;;;;;;;0.52;0.30;;;;;;;18.58;100.00;102459.88;5021751;28;20037;-74
2022/07/11 10:35:58;;;;;;;0.28;0.20;;;;;;;18.67;100.00;102449.59;5028137;28;20033;-75
2022/07/11 10:38:24;;;;;;;0.40;0.40;;;;;;;18.75;100.00;102458.13;5028293;28;20041;-74
2022/07/11 10:40:52;;;;;;;0.43;0.43;;;;;;;18.85;100.00;102455.81;5027205;28;20164;-74
2022/07/11 10:43:29;;;;;;;0.50;0.50;;;;;;;18.95;100.00;102467.75;5027759;28;21493;-74
2022/07/11 10:46:08;;;;;;;0.35;0.35;;;;;;;18.98;100.00;102469.38;5027260;28;20384;-74
2022/07/11 10:49:00;;;;;;;0.40;0.40;;;;;;;18.99;99.28;102468.44;5022522;28;20037;-73
2022/07/11 10:51:44;;;;;;;0.40;0.40;;;;;;;19.01;99.45;102466.53;5000215;28;20041;-73
2022/07/11 10:54:27;;;;;;;0.65;0.60;;;;;;;18.99;99.54;102471.13;5027337;28;21463;-74
2022/07/11 10:57:11;;;;;;;0.50;0.50;;;;;;;18.99;99.53;102482.72;5021932;28;20542;-74
2022/07/11 11:00:12;;;;;;;0.95;0.50;;;;;;;18.87;98.90;102484.25;5021646;28;20048;-74
2022/07/11 11:03:00;;;;;;;0.40;0.40;;;;;;;18.83;99.34;102487.19;5024954;28;20033;-74
2022/07/11 11:05:55;;;;;;;0.43;0.43;;;;;;;18.90;99.23;102483.22;5026569;28;20119;-74
2022/07/11 11:08:36;;;;;;;0.30;0.30;;;;;;;19.02;99.18;102483.50;5026035;28;20180;-74
2022/07/11 11:11:20;;;;;;;0.30;0.30;;;;;;;19.02;98.34;102478.13;5020178;28;20511;-74
2022/07/11 11:13:46;;;;;;;0.50;0.50;;;;;;;19.02;98.90;102479.03;5026519;28;20692;-74
2022/07/11 11:16:22;;;;;;;0.35;0.35;;;;;;;19.00;98.14;102481.78;5023473;28;20037;-73
2022/07/11 11:18:48;;;;;;;0.30;0.30;;;;;;;19.02;98.34;102478.13;5025843;28;20045;-74
2022/07/11 11:21:21;;;;;;;0.30;0.30;;;;;;;19.04;98.23;102482.50;5024435;28;20103;-73
2022/07/11 11:23:59;;;;;;;0.52;0.30;;;;;;;19.03;97.93;102486.13;5025486;28;20033;-72
2022/07/11 11:26:24;;;;;;;0.57;0.57;;;;;;;19.06;98.34;102480.59;5026956;28;20156;-74